createdAt,value
2019-03-26T00:00:45.427Z,97.91
2019-03-26T00:01:45.332Z,97.83
2019-03-26T00:02:45.492Z,97.80
2019-03-26T00:03:45.434Z,97.80
2019-03-26T00:04:45.365Z,97.80
2019-03-26T00:05:45.433Z,97.80
2019-03-26T00:06:45.444Z,97.85
2019-03-26T00:07:45.371Z,97.88
2019-03-26T00:08:45.436Z,97.91
2019-03-26T00:09:45.372Z,97.99
2019-03-26T00:10:45.403Z,98.02
2019-03-26T00:11:45.391Z,98.10
2019-03-26T00:12:45.455Z,98.21
2019-03-26T00:13:45.376Z,98.23
2019-03-26T00:14:45.455Z,98.29
2019-03-26T00:15:45.449Z,98.29
2019-03-26T00:16:45.512Z,98.26
2019-03-26T00:17:45.450Z,98.26
2019-03-26T00:18:45.393Z,98.31
2019-03-26T00:19:45.395Z,98.34
2019-03-26T00:20:45.396Z,98.34
2019-03-26T00:21:45.439Z,98.31
2019-03-26T00:22:45.442Z,98.31
2019-03-26T00:23:45.447Z,98.31
2019-03-26T00:24:45.346Z,98.37
2019-03-26T00:25:45.442Z,98.40
2019-03-26T00:26:45.372Z,98.42
2019-03-26T00:27:45.476Z,98.45
2019-03-26T00:28:45.440Z,98.53
2019-03-26T00:29:45.363Z,98.64
2019-03-26T00:30:45.387Z,98.69
2019-03-26T00:31:45.450Z,98.75
2019-03-26T00:32:45.463Z,98.88
2019-03-26T00:33:45.381Z,98.99
2019-03-26T00:34:45.454Z,99.04
2019-03-26T00:35:45.453Z,99.10
2019-03-26T00:36:45.384Z,99.21
2019-03-26T00:37:45.392Z,99.21
2019-03-26T00:38:45.559Z,99.26
2019-03-26T00:39:45.390Z,99.37
2019-03-26T00:40:45.588Z,99.40
2019-03-26T00:41:45.413Z,99.37
2019-03-26T00:42:45.494Z,99.34
2019-03-26T00:43:45.437Z,99.34
2019-03-26T00:44:45.398Z,99.29
2019-03-26T00:45:45.471Z,99.26
2019-03-26T00:46:45.473Z,99.23
2019-03-26T00:47:45.415Z,99.21
2019-03-26T00:48:45.438Z,99.10
2019-03-26T00:49:45.474Z,98.99
2019-03-26T00:50:45.423Z,98.91
2019-03-26T00:51:45.423Z,98.80
2019-03-26T00:52:45.482Z,98.77
2019-03-26T00:53:45.438Z,98.72
2019-03-26T00:54:45.490Z,98.66
2019-03-26T00:55:45.492Z,98.61
2019-03-26T00:56:45.432Z,98.59
2019-03-26T00:57:45.410Z,98.50
2019-03-26T00:58:45.434Z,98.42
2019-03-26T00:59:45.434Z,98.31
2019-03-26T01:00:45.458Z,98.23
2019-03-26T01:01:45.354Z,98.21
2019-03-26T01:02:45.400Z,98.21
2019-03-26T01:03:45.450Z,98.18
2019-03-26T01:04:45.464Z,98.07
2019-03-26T01:05:45.444Z,98.02
2019-03-26T01:06:45.357Z,97.96
2019-03-26T01:07:45.462Z,97.91
2019-03-26T01:08:45.403Z,97.93
2019-03-26T01:09:45.439Z,97.96
2019-03-26T01:10:45.410Z,97.93
2019-03-26T01:11:45.481Z,97.83
2019-03-26T01:12:45.427Z,97.80
2019-03-26T01:13:45.484Z,97.66
2019-03-26T01:14:45.416Z,97.66
2019-03-26T01:15:45.425Z,97.69
2019-03-26T01:16:45.488Z,97.64
2019-03-26T01:17:45.414Z,97.47
2019-03-26T01:18:45.420Z,97.34
2019-03-26T01:19:45.485Z,97.28
2019-03-26T01:20:45.377Z,97.31
2019-03-26T01:21:45.507Z,97.28
2019-03-26T01:22:45.500Z,97.23
2019-03-26T01:23:45.522Z,97.07
2019-03-26T01:24:45.462Z,96.96
2019-03-26T01:25:45.516Z,96.91
2019-03-26T01:26:45.509Z,96.83
2019-03-26T01:27:45.507Z,96.83
2019-03-26T01:28:45.512Z,96.77
2019-03-26T01:29:45.471Z,96.72
2019-03-26T01:30:45.429Z,96.69
2019-03-26T01:31:45.495Z,96.66
2019-03-26T01:32:45.439Z,96.64
2019-03-26T01:33:45.429Z,96.66
2019-03-26T01:34:46.444Z,96.64
2019-03-26T01:35:45.429Z,96.64
2019-03-26T01:36:45.431Z,96.64
2019-03-26T01:37:45.501Z,96.61
2019-03-26T01:38:45.497Z,96.45
2019-03-26T01:39:45.433Z,96.36
2019-03-26T01:40:45.438Z,96.36
2019-03-26T01:41:45.473Z,96.42
2019-03-26T01:42:45.508Z,96.42
2019-03-26T01:43:45.519Z,96.39
2019-03-26T01:44:45.402Z,96.39
2019-03-26T01:45:45.442Z,96.36
2019-03-26T01:46:45.391Z,96.34
2019-03-26T01:47:45.531Z,96.15
2019-03-26T01:48:45.531Z,95.91
2019-03-26T01:49:45.530Z,95.77
2019-03-26T01:50:45.491Z,95.69
2019-03-26T01:51:45.505Z,95.66
2019-03-26T01:52:45.455Z,95.56
2019-03-26T01:53:45.443Z,95.42
2019-03-26T01:54:45.508Z,95.34
2019-03-26T01:55:45.507Z,95.34
2019-03-26T01:56:45.416Z,95.34
2019-03-26T01:57:45.497Z,95.42
2019-03-26T01:58:45.496Z,95.39
2019-03-26T01:59:45.511Z,95.26
2019-03-26T02:00:45.381Z,95.23
2019-03-26T02:01:45.446Z,95.34
2019-03-26T02:02:45.521Z,95.42
2019-03-26T02:03:45.447Z,95.56
2019-03-26T02:04:58.849Z,95.66
2019-03-26T02:05:45.456Z,95.83
2019-03-26T02:06:45.450Z,95.96
2019-03-26T02:07:45.520Z,96.04
2019-03-26T02:08:45.457Z,96.17
2019-03-26T02:09:45.522Z,96.31
2019-03-26T02:10:45.457Z,96.39
2019-03-26T02:11:45.530Z,96.55
2019-03-26T02:12:48.362Z,96.80
2019-03-26T02:13:45.474Z,97.07
2019-03-26T02:14:45.462Z,97.26
2019-03-26T02:15:45.544Z,97.42
2019-03-26T02:16:45.462Z,97.64
2019-03-26T02:17:45.425Z,97.69
2019-03-26T02:18:45.542Z,97.80
2019-03-26T02:19:45.482Z,97.85
2019-03-26T02:20:45.480Z,97.88
2019-03-26T02:21:45.529Z,97.88
2019-03-26T02:22:45.479Z,97.88
2019-03-26T02:23:45.468Z,97.96
2019-03-26T02:24:45.482Z,98.04
2019-03-26T02:25:45.485Z,98.07
2019-03-26T02:26:45.551Z,98.04
2019-03-26T02:27:45.487Z,98.04
2019-03-26T02:28:45.488Z,98.07
2019-03-26T02:29:45.573Z,98.10
2019-03-26T02:30:45.562Z,98.10
2019-03-26T02:31:45.548Z,98.10
2019-03-26T02:32:45.502Z,98.15
2019-03-26T02:33:45.467Z,98.18
2019-03-26T02:34:45.539Z,98.18
2019-03-26T02:35:45.474Z,98.12
2019-03-26T02:36:45.552Z,98.23
2019-03-26T02:37:45.485Z,98.26
2019-03-26T02:38:45.543Z,98.26
2019-03-26T02:39:45.488Z,98.26
2019-03-26T02:40:45.497Z,98.26
2019-03-26T02:41:45.574Z,98.26
2019-03-26T02:42:45.568Z,98.26
2019-03-26T02:43:45.562Z,98.26
2019-03-26T02:44:45.483Z,98.26
2019-03-26T02:45:45.497Z,98.26
2019-03-26T02:46:45.503Z,98.29
2019-03-26T02:47:45.451Z,98.34
2019-03-26T02:48:45.505Z,98.31
2019-03-26T02:49:45.500Z,98.31
2019-03-26T02:50:45.514Z,98.26
2019-03-26T02:51:45.561Z,98.23
2019-03-26T02:52:45.541Z,98.21
2019-03-26T02:53:45.519Z,98.21
2019-03-26T02:54:45.564Z,98.07
2019-03-26T02:55:45.535Z,97.96
2019-03-26T02:56:45.451Z,97.91
2019-03-26T02:57:45.574Z,97.61
2019-03-26T02:58:45.511Z,97.42
2019-03-26T02:59:45.575Z,97.34
2019-03-26T03:00:45.579Z,97.21
2019-03-26T03:01:45.569Z,97.07
2019-03-26T03:02:45.503Z,97.04
2019-03-26T03:03:45.473Z,97.02
2019-03-26T03:04:45.460Z,97.04
2019-03-26T03:05:45.493Z,97.12
2019-03-26T03:06:45.468Z,97.26
2019-03-26T03:07:45.492Z,97.34
2019-03-26T03:08:45.555Z,97.34
2019-03-26T03:09:45.489Z,97.42
2019-03-26T03:10:45.468Z,97.47
2019-03-26T03:11:45.563Z,97.53
2019-03-26T03:12:45.501Z,97.61
2019-03-26T03:13:45.567Z,97.74
2019-03-26T03:14:45.500Z,97.83
2019-03-26T03:15:45.571Z,97.93
2019-03-26T03:16:45.572Z,98.02
2019-03-26T03:17:45.502Z,98.15
2019-03-26T03:18:45.572Z,98.26
2019-03-26T03:19:45.571Z,98.34
2019-03-26T03:20:45.507Z,98.40
2019-03-26T03:21:45.589Z,98.34
2019-03-26T03:22:45.706Z,98.26
2019-03-26T03:23:45.586Z,98.29
2019-03-26T03:24:45.584Z,98.29
2019-03-26T03:25:45.595Z,98.31
2019-03-26T03:26:45.527Z,98.29
2019-03-26T03:27:45.528Z,98.23
2019-03-26T03:28:45.590Z,98.23
2019-03-26T03:29:45.519Z,98.23
2019-03-26T03:30:45.597Z,98.21
2019-03-26T03:31:45.524Z,98.15
2019-03-26T03:32:45.592Z,98.10
2019-03-26T03:33:45.593Z,98.12
2019-03-26T03:34:45.591Z,98.18
2019-03-26T03:35:52.654Z,98.23
2019-03-26T03:36:45.598Z,98.26
2019-03-26T03:37:45.518Z,98.34
2019-03-26T03:38:45.597Z,98.42
2019-03-26T03:39:45.596Z,98.48
2019-03-26T03:40:45.651Z,98.50
2019-03-26T03:41:45.526Z,98.53
2019-03-26T03:42:45.610Z,98.53
2019-03-26T03:43:45.618Z,98.53
2019-03-26T03:44:45.709Z,98.37
2019-03-26T03:45:45.558Z,98.26
2019-03-26T03:46:45.603Z,98.15
2019-03-26T03:47:45.607Z,98.12
2019-03-26T03:48:45.603Z,98.23
2019-03-26T03:49:45.602Z,98.29
2019-03-26T03:50:45.533Z,98.34
2019-03-26T03:51:45.601Z,98.31
2019-03-26T03:52:45.567Z,98.26
2019-03-26T03:53:45.543Z,98.31
2019-03-26T03:54:45.550Z,98.42
2019-03-26T03:55:45.494Z,98.53
2019-03-26T03:56:45.548Z,98.64
2019-03-26T03:57:45.550Z,98.69
2019-03-26T03:58:45.615Z,98.69
2019-03-26T03:59:45.700Z,98.66
2019-03-26T04:00:45.551Z,98.64
2019-03-26T04:01:45.506Z,98.59
2019-03-26T04:02:45.685Z,98.48
2019-03-26T04:03:45.572Z,98.40
2019-03-26T04:04:45.594Z,98.31
2019-03-26T04:05:45.608Z,98.10
2019-03-26T04:06:45.570Z,97.80
2019-03-26T04:07:45.528Z,97.53
2019-03-26T04:08:45.595Z,97.26
2019-03-26T04:09:45.537Z,97.12
2019-03-26T04:10:45.537Z,96.96
2019-03-26T04:11:45.540Z,96.85
2019-03-26T04:12:45.616Z,96.85
2019-03-26T04:13:45.614Z,96.80
2019-03-26T04:14:45.551Z,96.55
2019-03-26T04:15:45.607Z,96.42
2019-03-26T04:16:45.672Z,96.36
2019-03-26T04:17:45.548Z,96.26
2019-03-26T04:18:45.617Z,95.96
2019-03-26T04:19:45.541Z,95.64
2019-03-26T04:20:45.622Z,95.47
2019-03-26T04:21:45.620Z,95.34
2019-03-26T04:22:45.558Z,95.07
2019-03-26T04:23:45.621Z,95.01
2019-03-26T04:24:45.555Z,94.83
2019-03-26T04:25:45.568Z,94.72
2019-03-26T04:26:45.632Z,94.40
2019-03-26T04:27:45.559Z,93.67
2019-03-26T04:28:45.620Z,93.21
2019-03-26T04:29:45.621Z,92.95
2019-03-26T04:30:45.567Z,91.86
2019-03-26T04:31:45.526Z,90.85
2019-03-26T04:32:45.508Z,89.80
2019-03-26T04:33:45.604Z,89.03
2019-03-26T04:34:45.537Z,88.65
2019-03-26T04:35:45.613Z,88.20
2019-03-26T04:36:45.518Z,87.96
2019-03-26T04:37:45.569Z,87.74
2019-03-26T04:38:45.613Z,87.53
2019-03-26T04:39:45.572Z,87.10
2019-03-26T04:40:45.525Z,87.13
2019-03-26T04:41:45.638Z,87.32
2019-03-26T04:42:45.710Z,87.40
2019-03-26T04:43:45.569Z,87.45
2019-03-26T04:44:45.575Z,87.56
2019-03-26T04:45:45.569Z,87.16
2019-03-26T04:46:45.644Z,86.79
2019-03-26T04:47:45.579Z,87.05
2019-03-26T04:48:45.640Z,87.13
2019-03-26T04:49:45.641Z,86.87
2019-03-26T04:50:45.572Z,86.63
2019-03-26T04:51:45.574Z,86.49
2019-03-26T04:52:45.656Z,86.44
2019-03-26T04:53:45.646Z,86.68
2019-03-26T04:54:45.539Z,86.97
2019-03-26T04:55:45.649Z,86.89
2019-03-26T04:56:45.584Z,86.73
2019-03-26T04:57:45.656Z,86.49
2019-03-26T04:58:45.589Z,86.33
2019-03-26T04:59:45.598Z,86.28
2019-03-26T05:00:45.715Z,86.38
2019-03-26T05:01:45.648Z,86.38
2019-03-26T05:02:45.571Z,86.60
2019-03-26T05:03:45.650Z,86.54
2019-03-26T05:04:45.647Z,86.41
2019-03-26T05:05:45.579Z,86.52
2019-03-26T05:06:45.644Z,86.63
2019-03-26T05:07:45.573Z,86.57
2019-03-26T05:08:45.647Z,86.52
2019-03-26T05:09:45.588Z,86.73
2019-03-26T05:10:45.582Z,86.87
2019-03-26T05:11:45.527Z,87.10
2019-03-26T05:12:45.526Z,87.34
2019-03-26T05:13:45.615Z,87.82
2019-03-26T05:14:45.540Z,87.59
2019-03-26T05:15:45.653Z,87.32
2019-03-26T05:16:45.533Z,87.48
2019-03-26T05:17:45.564Z,87.67
2019-03-26T05:18:45.651Z,87.82
2019-03-26T05:19:45.692Z,88.04
2019-03-26T05:20:45.553Z,88.20
2019-03-26T05:21:45.683Z,88.39
2019-03-26T05:22:45.612Z,88.50
2019-03-26T05:23:45.597Z,88.44
2019-03-26T05:24:45.747Z,88.57
2019-03-26T05:25:45.617Z,88.54
2019-03-26T05:26:45.930Z,88.50
2019-03-26T05:27:45.986Z,88.60
2019-03-26T05:28:45.568Z,88.73
2019-03-26T05:29:45.673Z,88.79
2019-03-26T05:30:45.616Z,88.97
2019-03-26T05:31:45.616Z,89.00
2019-03-26T05:32:45.698Z,89.14
2019-03-26T05:33:45.574Z,89.11
2019-03-26T05:34:45.674Z,89.19
2019-03-26T05:35:45.622Z,89.29
2019-03-26T05:36:51.303Z,89.48
2019-03-26T05:37:45.615Z,89.62
2019-03-26T05:38:45.679Z,89.72
2019-03-26T05:39:45.677Z,89.91
2019-03-26T05:40:45.671Z,89.99
2019-03-26T05:41:45.640Z,90.31
2019-03-26T05:42:45.613Z,90.55
2019-03-26T05:43:45.566Z,90.61
2019-03-26T05:44:45.549Z,90.82
2019-03-26T05:45:45.563Z,90.98
2019-03-26T05:46:45.569Z,91.07
2019-03-26T05:47:45.498Z,91.14
2019-03-26T05:48:45.529Z,91.25
2019-03-26T05:49:45.505Z,91.41
2019-03-26T05:50:45.560Z,91.52
2019-03-26T05:51:45.608Z,91.65
2019-03-26T05:52:45.682Z,91.60
2019-03-26T05:53:45.676Z,91.60
2019-03-26T05:54:45.677Z,91.79
2019-03-26T05:55:45.589Z,91.71
2019-03-26T05:56:45.645Z,91.44
2019-03-26T05:57:45.609Z,91.20
2019-03-26T05:58:45.591Z,91.07
2019-03-26T05:59:45.681Z,91.09
2019-03-26T06:00:45.583Z,91.17
2019-03-26T06:01:45.698Z,91.33
2019-03-26T06:02:45.638Z,91.41
2019-03-26T06:03:45.705Z,91.38
2019-03-26T06:04:45.624Z,91.44
2019-03-26T06:05:45.703Z,91.57
2019-03-26T06:06:45.705Z,91.76
2019-03-26T06:07:45.701Z,91.92
2019-03-26T06:08:45.706Z,91.92
2019-03-26T06:09:45.629Z,91.92
2019-03-26T06:10:45.661Z,91.92
2019-03-26T06:11:45.645Z,91.92
2019-03-26T06:12:45.599Z,91.97
2019-03-26T06:13:45.580Z,91.92
2019-03-26T06:14:45.622Z,91.90
2019-03-26T06:15:45.653Z,91.84
2019-03-26T06:16:45.642Z,91.36
2019-03-26T06:17:45.618Z,91.11
2019-03-26T06:18:45.637Z,91.01
2019-03-26T06:19:45.621Z,90.85
2019-03-26T06:20:45.564Z,90.74
2019-03-26T06:21:45.665Z,90.77
2019-03-26T06:22:45.698Z,90.82
2019-03-26T06:23:45.623Z,90.61
2019-03-26T06:24:45.697Z,90.55
2019-03-26T06:25:45.625Z,90.66
2019-03-26T06:26:45.658Z,90.13
2019-03-26T06:27:45.664Z,89.43
2019-03-26T06:28:45.600Z,89.03
2019-03-26T06:29:45.637Z,89.03
2019-03-26T06:30:45.635Z,88.87
2019-03-26T06:31:45.648Z,88.57
2019-03-26T06:32:45.643Z,88.33
2019-03-26T06:33:45.659Z,88.31
2019-03-26T06:34:45.648Z,88.20
2019-03-26T06:35:45.730Z,88.25
2019-03-26T06:36:45.715Z,88.04
2019-03-26T06:37:45.719Z,87.53
2019-03-26T06:38:45.677Z,87.08
2019-03-26T06:39:45.731Z,87.13
2019-03-26T06:40:45.652Z,87.13
2019-03-26T06:41:45.657Z,86.89
2019-03-26T06:42:45.710Z,86.68
2019-03-26T06:43:45.709Z,86.28
2019-03-26T06:44:45.641Z,85.99
2019-03-26T06:45:45.622Z,86.07
2019-03-26T06:46:45.716Z,85.77
2019-03-26T06:47:45.667Z,85.85
2019-03-26T06:48:45.650Z,85.88
2019-03-26T06:49:45.664Z,85.75
2019-03-26T06:50:45.645Z,85.19
2019-03-26T06:51:45.743Z,85.05
2019-03-26T06:52:45.730Z,84.89
2019-03-26T06:53:45.737Z,84.76
2019-03-26T06:54:45.629Z,84.44
2019-03-26T06:55:45.771Z,84.20
2019-03-26T06:56:45.743Z,84.42
2019-03-26T06:57:45.735Z,84.09
2019-03-26T06:58:45.661Z,84.05
2019-03-26T06:59:45.738Z,84.07
2019-03-26T07:00:45.752Z,83.78
2019-03-26T07:01:45.746Z,83.97
2019-03-26T07:02:45.733Z,83.94
2019-03-26T07:03:45.666Z,82.75
2019-03-26T07:04:45.667Z,82.27
2019-03-26T07:05:45.733Z,82.11
2019-03-26T07:06:45.683Z,82.24
2019-03-26T07:07:45.735Z,82.16
2019-03-26T07:08:45.705Z,81.26
2019-03-26T07:09:45.742Z,80.52
2019-03-26T07:10:45.742Z,80.55
2019-03-26T07:11:45.747Z,79.71
2019-03-26T07:12:45.751Z,79.33
2019-03-26T07:13:45.741Z,79.49
2019-03-26T07:14:45.761Z,79.60
2019-03-26T07:15:45.675Z,79.13
2019-03-26T07:16:45.839Z,79.36
2019-03-26T07:17:45.652Z,79.49
2019-03-26T07:18:45.757Z,78.78
2019-03-26T07:19:45.677Z,78.97
2019-03-26T07:20:45.674Z,79.07
2019-03-26T07:21:49.785Z,79.41
2019-03-26T07:22:45.670Z,78.62
2019-03-26T07:23:45.673Z,78.44
2019-03-26T07:24:45.746Z,78.39
2019-03-26T07:25:45.636Z,78.28
2019-03-26T07:26:45.653Z,78.33
2019-03-26T07:27:45.742Z,78.05
2019-03-26T07:28:45.673Z,77.28
2019-03-26T07:29:45.750Z,77.67
2019-03-26T07:30:45.741Z,77.73
2019-03-26T07:31:45.607Z,77.28
2019-03-26T07:32:45.643Z,77.25
2019-03-26T07:33:45.676Z,77.57
2019-03-26T07:34:45.610Z,77.47
2019-03-26T07:35:45.707Z,76.81
2019-03-26T07:36:45.708Z,76.91
2019-03-26T07:37:46.077Z,76.26
2019-03-26T07:38:45.694Z,76.46
2019-03-26T07:39:45.691Z,76.39
2019-03-26T07:40:45.624Z,76.54
2019-03-26T07:41:45.732Z,77.23
2019-03-26T07:42:45.702Z,77.07
2019-03-26T07:43:45.757Z,76.46
2019-03-26T07:44:45.733Z,76.44
2019-03-26T07:45:45.762Z,74.99
2019-03-26T07:46:45.769Z,74.71
2019-03-26T07:47:45.698Z,74.52
2019-03-26T07:48:45.764Z,74.05
2019-03-26T07:49:45.770Z,74.13
2019-03-26T07:50:45.774Z,73.48
2019-03-26T07:51:45.769Z,73.11
2019-03-26T07:52:45.766Z,72.88
2019-03-26T07:53:45.770Z,72.90
2019-03-26T07:54:45.770Z,73.24
2019-03-26T07:55:45.717Z,73.24
2019-03-26T07:56:45.716Z,73.71
2019-03-26T07:57:45.705Z,72.90
2019-03-26T07:58:45.776Z,73.27
2019-03-26T07:59:45.710Z,72.98
2019-03-26T08:00:45.784Z,72.75
2019-03-26T08:01:45.787Z,72.09
2019-03-26T08:02:45.775Z,72.88
2019-03-26T08:03:45.780Z,72.88
2019-03-26T08:04:45.711Z,73.03
2019-03-26T08:05:45.780Z,72.69
2019-03-26T08:06:45.790Z,72.30
2019-03-26T08:07:57.733Z,71.73
2019-03-26T08:08:45.782Z,72.41
2019-03-26T08:09:45.733Z,72.51
2019-03-26T08:10:45.717Z,72.51
2019-03-26T08:11:45.712Z,72.41
2019-03-26T08:12:45.731Z,72.09
2019-03-26T08:13:45.773Z,72.53
2019-03-26T08:14:45.709Z,72.04
2019-03-26T08:15:45.714Z,71.00
2019-03-26T08:16:45.778Z,71.26
2019-03-26T08:17:45.712Z,71.42
2019-03-26T08:18:45.687Z,71.83
2019-03-26T08:19:45.781Z,71.57
2019-03-26T08:20:45.735Z,71.05
2019-03-26T08:21:45.781Z,69.59
2019-03-26T08:22:45.716Z,70.43
2019-03-26T08:23:45.777Z,69.70
2019-03-26T08:24:45.663Z,69.70
2019-03-26T08:25:45.788Z,70.48
2019-03-26T08:26:45.700Z,69.54
2019-03-26T08:27:45.789Z,69.20
2019-03-26T08:28:45.722Z,67.85
2019-03-26T08:29:45.736Z,69.41
2019-03-26T08:30:45.717Z,68.97
2019-03-26T08:31:45.714Z,68.79
2019-03-26T08:32:45.788Z,69.15
2019-03-26T08:33:45.722Z,69.07
2019-03-26T08:34:46.803Z,69.34
2019-03-26T08:35:45.717Z,69.65
2019-03-26T08:36:45.794Z,69.98
2019-03-26T08:37:45.723Z,71.60
2019-03-26T08:38:45.768Z,72.46
2019-03-26T08:39:45.734Z,73.50
2019-03-26T08:40:45.705Z,73.87
2019-03-26T08:41:45.799Z,74.34
2019-03-26T08:42:45.736Z,75.18
2019-03-26T08:43:45.804Z,75.70
2019-03-26T08:44:45.814Z,76.60
2019-03-26T08:45:45.807Z,77.36
2019-03-26T08:46:46.354Z,77.70
2019-03-26T08:47:45.810Z,77.02
2019-03-26T08:48:45.752Z,76.81
2019-03-26T08:49:45.762Z,77.31
2019-03-26T08:50:45.770Z,79.05
2019-03-26T08:51:45.742Z,78.73
2019-03-26T08:52:45.808Z,78.75
2019-03-26T08:53:45.807Z,78.59
2019-03-26T08:54:45.748Z,77.67
2019-03-26T08:55:45.753Z,78.28
2019-03-26T08:56:45.752Z,78.41
2019-03-26T08:57:45.748Z,79.20
2019-03-26T08:58:45.814Z,78.89
2019-03-26T08:59:45.819Z,78.41
2019-03-26T09:00:45.827Z,79.25
2019-03-26T09:01:45.819Z,78.28
2019-03-26T09:02:45.760Z,77.54
2019-03-26T09:03:45.828Z,77.17
2019-03-26T09:04:45.757Z,77.25
2019-03-26T09:05:45.754Z,76.99
2019-03-26T09:06:45.764Z,77.39
2019-03-26T09:07:45.824Z,76.86
2019-03-26T09:08:45.826Z,76.99
2019-03-26T09:09:45.757Z,77.54
2019-03-26T09:10:51.632Z,77.54
2019-03-26T09:11:45.834Z,78.41
2019-03-26T09:12:45.818Z,78.75
2019-03-26T09:13:45.706Z,79.20
2019-03-26T09:14:45.732Z,77.67
2019-03-26T09:15:45.823Z,77.39
2019-03-26T09:16:45.822Z,77.57
2019-03-26T09:17:45.758Z,78.05
2019-03-26T09:18:45.751Z,77.67
2019-03-26T09:19:45.821Z,77.78
2019-03-26T09:20:45.709Z,77.67
2019-03-26T09:21:45.837Z,77.15
2019-03-26T09:22:45.800Z,76.15
2019-03-26T09:23:45.742Z,75.60
2019-03-26T09:24:45.791Z,75.68
2019-03-26T09:25:45.741Z,74.71
2019-03-26T09:26:45.756Z,74.26
2019-03-26T09:27:45.758Z,75.23
2019-03-26T09:28:47.853Z,75.23
2019-03-26T09:29:45.710Z,75.44
2019-03-26T09:30:45.797Z,74.97
2019-03-26T09:31:45.832Z,75.47
2019-03-26T09:32:45.772Z,75.47
2019-03-26T09:33:45.782Z,73.85
2019-03-26T09:34:45.773Z,73.71
2019-03-26T09:35:45.845Z,73.27
2019-03-26T09:36:45.843Z,72.98
2019-03-26T09:37:45.864Z,72.36
2019-03-26T09:38:45.858Z,72.83
2019-03-26T09:39:45.788Z,72.41
2019-03-26T09:40:45.846Z,71.81
2019-03-26T09:41:45.780Z,71.75
2019-03-26T09:42:45.856Z,72.12
2019-03-26T09:43:45.851Z,70.82
2019-03-26T09:44:45.856Z,70.76
2019-03-26T09:45:45.783Z,71.57
2019-03-26T09:46:45.853Z,72.43
2019-03-26T09:47:45.855Z,72.14
2019-03-26T09:48:45.846Z,72.20
2019-03-26T09:49:45.865Z,73.35
2019-03-26T09:50:45.784Z,72.80
2019-03-26T09:51:45.856Z,72.22
2019-03-26T09:52:45.847Z,73.32
2019-03-26T09:53:45.850Z,73.66
2019-03-26T09:54:45.869Z,72.22
2019-03-26T09:55:45.866Z,71.67
2019-03-26T09:56:45.856Z,72.12
2019-03-26T09:57:45.814Z,71.89
2019-03-26T09:58:45.819Z,73.16
2019-03-26T09:59:45.858Z,72.90
2019-03-26T10:00:45.992Z,71.52
2019-03-26T10:01:45.777Z,70.50
2019-03-26T10:02:45.866Z,70.87
2019-03-26T10:03:45.803Z,71.52
2019-03-26T10:04:45.864Z,71.34
2019-03-26T10:05:45.875Z,71.28
2019-03-26T10:06:45.868Z,72.53
2019-03-26T10:07:45.843Z,72.69
2019-03-26T10:08:52.195Z,72.67
2019-03-26T10:09:45.869Z,72.80
2019-03-26T10:10:45.811Z,72.53
2019-03-26T10:11:45.809Z,72.75
2019-03-26T10:12:45.879Z,72.41
2019-03-26T10:13:45.785Z,73.71
2019-03-26T10:14:45.826Z,74.21
2019-03-26T10:15:45.835Z,74.55
2019-03-26T10:16:45.873Z,74.21
2019-03-26T10:17:45.791Z,74.26
2019-03-26T10:18:45.863Z,74.52
2019-03-26T10:19:45.861Z,74.79
2019-03-26T10:20:45.799Z,75.05
2019-03-26T10:21:45.797Z,75.02
2019-03-26T10:22:45.697Z,74.66
2019-03-26T10:23:45.802Z,73.55
2019-03-26T10:24:45.745Z,74.26
2019-03-26T10:25:45.697Z,74.68
2019-03-26T10:26:45.718Z,74.58
2019-03-26T10:27:45.768Z,74.89
2019-03-26T10:28:45.822Z,75.70
2019-03-26T10:29:45.807Z,75.94
2019-03-26T10:30:45.807Z,75.89
2019-03-26T10:31:45.813Z,75.99
2019-03-26T10:32:45.832Z,76.31
2019-03-26T10:33:45.892Z,76.75
2019-03-26T10:34:45.888Z,76.73
2019-03-26T10:35:45.885Z,76.57
2019-03-26T10:36:45.819Z,76.83
2019-03-26T10:37:45.893Z,76.86
2019-03-26T10:38:45.825Z,76.70
2019-03-26T10:39:45.893Z,76.34
2019-03-26T10:40:45.822Z,76.52
2019-03-26T10:41:45.897Z,77.20
2019-03-26T10:42:45.933Z,77.23
2019-03-26T10:43:45.902Z,77.65
2019-03-26T10:44:45.894Z,77.33
2019-03-26T10:45:45.828Z,76.78
2019-03-26T10:46:45.896Z,76.57
2019-03-26T10:47:45.931Z,76.67
2019-03-26T10:48:45.897Z,76.62
2019-03-26T10:49:45.978Z,76.67
2019-03-26T10:50:45.796Z,76.81
2019-03-26T10:51:45.896Z,76.83
2019-03-26T10:52:45.901Z,76.86
2019-03-26T10:53:45.838Z,77.17
2019-03-26T10:54:45.901Z,76.83
2019-03-26T10:55:45.840Z,76.70
2019-03-26T10:56:45.842Z,76.31
2019-03-26T10:57:45.900Z,76.52
2019-03-26T10:58:45.910Z,76.65
2019-03-26T10:59:45.845Z,76.52
2019-03-26T11:00:45.907Z,76.57
2019-03-26T11:01:45.871Z,75.94
2019-03-26T11:02:45.832Z,75.78
2019-03-26T11:03:45.830Z,75.94
2019-03-26T11:04:45.888Z,75.96
2019-03-26T11:05:45.843Z,76.60
2019-03-26T11:06:45.893Z,76.02
2019-03-26T11:07:45.803Z,75.96
2019-03-26T11:08:45.768Z,76.46
2019-03-26T11:09:45.891Z,76.26
2019-03-26T11:10:45.832Z,76.12
2019-03-26T11:11:45.808Z,75.94
2019-03-26T11:12:45.795Z,75.52
2019-03-26T11:13:45.850Z,75.18
2019-03-26T11:14:45.796Z,75.07
2019-03-26T11:15:45.873Z,75.34
2019-03-26T11:16:45.778Z,75.39
2019-03-26T11:17:45.869Z,75.07
2019-03-26T11:18:45.893Z,74.84
2019-03-26T11:19:46.569Z,74.84
2019-03-26T11:20:45.869Z,74.26
2019-03-26T11:21:45.824Z,74.16
2019-03-26T11:22:45.855Z,73.89
2019-03-26T11:23:45.921Z,74.16
2019-03-26T11:24:45.928Z,74.16
2019-03-26T11:25:45.924Z,73.89
2019-03-26T11:26:45.855Z,74.21
2019-03-26T11:27:45.857Z,73.55
2019-03-26T11:28:45.867Z,73.42
2019-03-26T11:29:45.932Z,73.71
2019-03-26T11:30:45.929Z,74.00
2019-03-26T11:31:45.865Z,73.63
2019-03-26T11:32:45.859Z,73.87
2019-03-26T11:33:45.926Z,74.16
2019-03-26T11:34:45.873Z,74.58
2019-03-26T11:35:45.937Z,74.47
2019-03-26T11:36:45.932Z,74.60
2019-03-26T11:37:45.861Z,74.73
2019-03-26T11:38:45.934Z,74.29
2019-03-26T11:39:45.932Z,75.13
2019-03-26T11:40:45.867Z,75.44
2019-03-26T11:41:45.933Z,75.73
2019-03-26T11:42:45.936Z,76.10
2019-03-26T11:43:45.939Z,76.44
2019-03-26T11:44:45.867Z,76.39
2019-03-26T11:45:45.939Z,76.65
2019-03-26T11:46:45.943Z,76.81
2019-03-26T11:47:45.936Z,76.31
2019-03-26T11:48:45.938Z,76.67
2019-03-26T11:49:45.945Z,76.78
2019-03-26T11:50:45.902Z,76.70
2019-03-26T11:51:45.948Z,76.67
2019-03-26T11:52:45.877Z,76.94
2019-03-26T11:53:45.941Z,77.31
2019-03-26T11:54:45.889Z,77.51
2019-03-26T11:55:45.951Z,77.39
2019-03-26T11:56:45.957Z,77.41
2019-03-26T11:57:45.877Z,77.39
2019-03-26T11:58:45.880Z,77.04
2019-03-26T11:59:45.951Z,77.15
2019-03-26T12:00:45.890Z,76.62
2019-03-26T12:01:45.884Z,77.62
2019-03-26T12:02:45.895Z,77.59
2019-03-26T12:03:45.909Z,77.86
2019-03-26T12:04:45.965Z,77.51
2019-03-26T12:05:45.950Z,77.59
2019-03-26T12:06:45.882Z,76.86
2019-03-26T12:07:45.894Z,76.49
2019-03-26T12:08:45.900Z,76.94
2019-03-26T12:09:46.885Z,76.89
2019-03-26T12:10:45.955Z,77.09
2019-03-26T12:11:45.954Z,76.91
2019-03-26T12:12:45.902Z,77.47
2019-03-26T12:13:45.895Z,77.31
2019-03-26T12:14:45.892Z,77.51
2019-03-26T12:15:45.959Z,77.25
2019-03-26T12:16:45.887Z,77.49
2019-03-26T12:17:45.958Z,77.89
2019-03-26T12:18:45.890Z,78.17
2019-03-26T12:19:45.960Z,78.47
2019-03-26T12:20:45.894Z,78.78
2019-03-26T12:21:45.962Z,78.33
2019-03-26T12:22:45.866Z,78.86
2019-03-26T12:23:45.937Z,79.31
2019-03-26T12:24:45.834Z,80.07
2019-03-26T12:25:45.906Z,80.44
2019-03-26T12:26:45.942Z,81.68
2019-03-26T12:27:45.956Z,81.66
2019-03-26T12:28:45.893Z,81.79
2019-03-26T12:29:45.932Z,81.58
2019-03-26T12:30:45.858Z,81.58
2019-03-26T12:31:45.959Z,81.52
2019-03-26T12:32:45.971Z,81.32
2019-03-26T12:33:45.976Z,80.89
2019-03-26T12:34:45.917Z,81.02
2019-03-26T12:35:45.972Z,81.08
2019-03-26T12:36:45.900Z,80.92
2019-03-26T12:37:45.976Z,81.13
2019-03-26T12:38:45.980Z,80.84
2019-03-26T12:39:58.578Z,80.94
2019-03-26T12:40:45.968Z,80.68
2019-03-26T12:41:45.910Z,81.10
2019-03-26T12:42:45.972Z,80.79
2019-03-26T12:43:45.845Z,80.76
2019-03-26T12:44:45.968Z,81.08
2019-03-26T12:45:45.964Z,81.24
2019-03-26T12:46:45.966Z,81.05
2019-03-26T12:47:45.959Z,80.41
2019-03-26T12:48:45.875Z,80.55
2019-03-26T12:49:45.849Z,80.76
2019-03-26T12:50:45.958Z,80.92
2019-03-26T12:51:45.980Z,81.34
2019-03-26T12:52:46.007Z,81.48